createdAt,value
2018-10-19T00:00:29.216Z,143728.31
2018-10-19T00:02:58.668Z,143700.92
2018-10-19T00:05:27.984Z,143688.48
2018-10-19T00:07:57.320Z,143676.05
2018-10-19T00:10:26.749Z,143656.13
2018-10-19T00:12:56.243Z,143676.05
2018-10-19T00:15:25.319Z,143662.31
2018-10-19T00:17:54.615Z,143643.64
2018-10-19T00:20:23.764Z,143638.70
2018-10-19T00:22:52.858Z,143624.97
2018-10-19T00:25:21.901Z,143636.19
2018-10-19T00:27:50.928Z,143681.03
2018-10-19T00:30:20.068Z,143653.59
2018-10-19T00:32:49.108Z,143618.77
2018-10-19T00:35:18.266Z,143648.63
2018-10-19T00:37:47.341Z,143642.42
2018-10-19T00:40:16.483Z,143638.70
2018-10-19T00:42:45.660Z,143662.31
2018-10-19T00:45:14.777Z,143669.81
2018-10-19T00:47:43.832Z,143638.70
2018-10-19T00:50:12.947Z,143662.31
2018-10-19T00:52:41.918Z,143663.56
2018-10-19T00:55:11.065Z,143659.84
2018-10-19T00:57:40.218Z,143610.06
2018-10-19T01:00:09.465Z,143615.05
2018-10-19T01:02:38.686Z,143582.64
2018-10-19T01:05:08.275Z,143646.16
2018-10-19T01:07:37.336Z,143623.75
2018-10-19T01:10:06.465Z,143632.47
2018-10-19T01:12:35.581Z,143628.73
2018-10-19T01:15:04.638Z,143608.81
2018-10-19T01:17:33.698Z,143602.56
2018-10-19T01:20:02.737Z,143587.63
2018-10-19T01:22:31.808Z,143581.44
2018-10-19T01:25:00.954Z,143585.16
2018-10-19T01:27:30.042Z,143580.17
2018-10-19T01:29:59.182Z,143605.09
2018-10-19T01:32:28.252Z,143613.78
2018-10-19T01:34:57.366Z,143581.44
2018-10-19T01:37:26.499Z,143583.89
2018-10-19T01:39:55.589Z,143570.22
2018-10-19T01:42:24.735Z,143571.47
2018-10-19T01:44:53.763Z,143567.75
2018-10-19T01:47:22.792Z,143546.56
2018-10-19T01:49:51.855Z,143536.59
2018-10-19T01:52:20.970Z,143540.31
2018-10-19T01:54:50.135Z,143531.63
2018-10-19T01:57:19.154Z,143529.16
2018-10-19T01:59:48.342Z,143505.50
2018-10-19T02:02:17.364Z,143540.31
2018-10-19T02:04:46.960Z,143578.91
2018-10-19T02:07:16.466Z,143545.30
2018-10-19T02:09:45.560Z,143552.80
2018-10-19T02:12:14.619Z,143544.09
2018-10-19T02:14:43.688Z,143551.53
2018-10-19T02:17:13.047Z,143571.47
2018-10-19T02:19:42.329Z,143557.78
2018-10-19T02:22:11.478Z,143578.91
2018-10-19T02:24:40.676Z,143555.27
2018-10-19T02:27:09.849Z,143545.30
2018-10-19T02:29:39.276Z,143522.92
2018-10-19T02:32:08.344Z,143526.64
2018-10-19T02:34:37.970Z,143529.16
2018-10-19T02:37:07.851Z,143542.84
2018-10-19T02:39:37.000Z,143521.66
2018-10-19T02:42:06.293Z,143512.95
2018-10-19T02:44:35.450Z,143514.22
2018-10-19T02:47:04.652Z,143498.02
2018-10-19T02:49:33.677Z,143480.56
2018-10-19T02:52:03.321Z,143465.63
2018-10-19T02:54:32.404Z,143425.83
2018-10-19T02:57:01.584Z,143437.00
2018-10-19T02:59:30.669Z,143412.16
2018-10-19T03:01:59.761Z,143397.22
2018-10-19T03:04:29.165Z,143400.94
2018-10-19T03:06:58.289Z,143383.53
2018-10-19T03:09:27.378Z,143381.03
2018-10-19T03:11:56.473Z,143362.38
2018-10-19T03:14:25.504Z,143374.84
2018-10-19T03:16:54.638Z,143361.16
2018-10-19T03:19:23.812Z,143373.58
2018-10-19T03:21:52.961Z,143382.28
2018-10-19T03:24:22.006Z,143377.31
2018-10-19T03:26:51.036Z,143369.86
2018-10-19T03:29:20.225Z,143376.05
2018-10-19T03:31:49.218Z,143368.61
2018-10-19T03:34:18.218Z,143386.00
2018-10-19T03:36:47.335Z,143362.38
2018-10-19T03:39:16.485Z,143364.89
2018-10-19T03:41:45.923Z,143379.81
2018-10-19T03:44:15.070Z,143389.72
2018-10-19T03:46:44.168Z,143418.34
2018-10-19T03:49:13.306Z,143418.34
2018-10-19T03:51:42.500Z,143419.59
2018-10-19T03:54:11.911Z,143395.97
2018-10-19T03:56:41.358Z,143409.64
2018-10-19T03:59:10.463Z,143404.66
2018-10-19T04:01:39.922Z,143390.98
2018-10-19T04:04:09.494Z,143402.20
2018-10-19T04:06:38.600Z,143407.17
2018-10-19T04:09:10.478Z,143417.13
2018-10-19T04:11:39.822Z,143434.53
2018-10-19T04:14:09.832Z,143434.53
2018-10-19T04:16:39.013Z,143444.50
2018-10-19T04:19:08.504Z,143441.97
2018-10-19T04:21:37.968Z,143464.41
2018-10-19T04:24:07.469Z,143434.53
2018-10-19T04:26:36.549Z,143417.13
2018-10-19T04:29:06.289Z,143384.75
2018-10-19T04:31:35.383Z,143409.64
2018-10-19T04:34:04.469Z,143404.66
2018-10-19T04:36:33.557Z,143412.16
2018-10-19T04:39:02.723Z,143408.37
2018-10-19T04:41:32.323Z,143420.84
2018-10-19T04:44:01.333Z,143420.84
2018-10-19T04:46:30.433Z,143429.55
2018-10-19T04:48:59.453Z,143414.63
2018-10-19T04:51:28.963Z,143438.25
2018-10-19T04:53:57.996Z,143469.39
2018-10-19T04:56:27.115Z,143456.91
2018-10-19T04:58:56.658Z,143446.95
2018-10-19T05:01:25.722Z,143450.69
2018-10-19T05:03:54.821Z,143432.02
2018-10-19T05:06:23.842Z,143417.13
2018-10-19T05:08:52.896Z,143434.53
2018-10-19T05:11:22.021Z,143438.25
2018-10-19T05:13:51.324Z,143439.52
2018-10-19T05:16:20.801Z,143414.63
2018-10-19T05:18:50.043Z,143423.31
2018-10-19T05:21:19.443Z,143414.63
2018-10-19T05:23:48.874Z,143427.05
2018-10-19T05:26:18.592Z,143424.58
2018-10-19T05:28:47.862Z,143438.25
2018-10-19T05:31:16.964Z,143470.59
2018-10-19T05:33:45.956Z,143466.88
2018-10-19T05:36:15.032Z,143441.97
2018-10-19T05:38:44.171Z,143456.91
2018-10-19T05:41:13.354Z,143432.02
2018-10-19T05:43:42.430Z,143464.41
2018-10-19T05:46:11.632Z,143438.25
2018-10-19T05:48:40.991Z,143527.91
2018-10-19T05:51:11.184Z,143437.00
2018-10-19T05:53:40.459Z,143393.50
2018-10-19T05:56:09.918Z,143390.98
2018-10-19T05:58:39.080Z,143417.13
2018-10-19T06:01:08.484Z,143454.45
2018-10-19T06:03:37.570Z,143464.41
2018-10-19T06:06:06.709Z,143593.86
2018-10-19T06:08:36.064Z,143511.75
2018-10-19T06:11:05.879Z,143587.63
2018-10-19T06:13:34.989Z,143629.94
2018-10-19T06:16:04.046Z,143710.89
2018-10-19T06:18:33.183Z,143699.72
2018-10-19T06:21:02.607Z,143576.45
2018-10-19T06:23:32.210Z,143596.38
2018-10-19T06:26:01.506Z,143544.09
2018-10-19T06:28:30.976Z,143607.55
2018-10-19T06:31:00.102Z,143598.84
2018-10-19T06:33:29.183Z,143542.84
2018-10-19T06:35:58.331Z,143565.23
2018-10-19T06:38:27.388Z,143598.84
2018-10-19T06:40:56.506Z,143521.66
2018-10-19T06:43:25.958Z,143521.66
2018-10-19T06:45:55.033Z,143567.75
2018-10-19T06:48:24.132Z,143551.53
2018-10-19T06:50:53.518Z,143590.14
2018-10-19T06:53:23.014Z,143592.61
2018-10-19T06:55:52.286Z,143601.31
2018-10-19T06:58:21.412Z,143639.91
2018-10-19T07:00:50.513Z,143659.84
2018-10-19T07:03:19.608Z,143671.06
2018-10-19T07:05:49.299Z,143685.97
2018-10-19T07:08:18.387Z,143785.61
2018-10-19T07:10:47.524Z,143754.48
2018-10-19T07:13:16.657Z,143733.30
2018-10-19T07:15:45.974Z,143775.64
2018-10-19T07:18:14.981Z,143842.97
2018-10-19T07:20:44.380Z,143825.55
2018-10-19T07:23:13.829Z,143842.97
2018-10-19T07:25:43.043Z,143819.30
2018-10-19T07:28:12.131Z,143841.72
2018-10-19T07:30:41.299Z,143886.59
2018-10-19T07:33:10.397Z,143915.25
2018-10-19T07:35:39.630Z,143941.41
2018-10-19T07:38:09.018Z,143936.42
2018-10-19T07:40:38.665Z,143940.14
2018-10-19T07:43:08.162Z,143945.12
2018-10-19T07:45:37.244Z,143950.13
2018-10-19T07:48:06.502Z,143967.59
2018-10-19T07:50:35.425Z,143982.53
2018-10-19T07:53:05.266Z,144018.70
2018-10-19T07:55:34.338Z,144079.84
2018-10-19T07:58:03.468Z,144098.55
2018-10-19T08:00:32.544Z,144076.06
2018-10-19T08:03:01.809Z,144083.56
2018-10-19T08:05:30.970Z,144091.03
2018-10-19T08:08:00.079Z,144124.72
2018-10-19T08:10:29.220Z,144118.50
2018-10-19T08:12:58.389Z,144167.11
2018-10-19T08:15:27.542Z,144184.61
2018-10-19T08:17:56.877Z,144228.23
2018-10-19T08:20:26.321Z,144248.20
2018-10-19T08:22:55.490Z,144251.94
2018-10-19T08:25:24.996Z,144316.86
2018-10-19T08:27:54.099Z,144311.86
2018-10-19T08:30:23.206Z,144321.80
2018-10-19T08:32:52.335Z,144316.86
2018-10-19T08:35:21.846Z,144359.34
2018-10-19T08:37:51.070Z,144359.34
2018-10-19T08:40:20.489Z,144393.00
2018-10-19T08:42:49.578Z,144393.00
2018-10-19T08:45:18.859Z,144449.16
2018-10-19T08:47:47.897Z,144455.42
2018-10-19T08:50:17.470Z,144482.87
2018-10-19T08:52:47.024Z,144472.89
2018-10-19T08:55:16.480Z,144489.14
2018-10-19T08:57:45.848Z,144545.33
2018-10-19T09:00:15.265Z,144582.80
2018-10-19T09:02:44.759Z,144572.80
2018-10-19T09:05:14.460Z,144656.58
2018-10-19T09:07:43.751Z,144594.09
2018-10-19T09:10:12.856Z,144634.05
2018-10-19T09:12:42.076Z,144646.58
2018-10-19T09:15:11.224Z,144651.58
2018-10-19T09:17:40.285Z,144662.78
2018-10-19T09:20:09.400Z,144714.00
2018-10-19T09:22:38.564Z,144709.00
2018-10-19T09:25:07.631Z,144731.53
2018-10-19T09:27:36.765Z,144756.50
2018-10-19T09:30:06.843Z,144735.28
2018-10-19T09:32:35.941Z,144750.28
2018-10-19T09:35:05.323Z,144886.56
2018-10-19T09:37:34.574Z,145001.63
2018-10-19T09:40:03.683Z,145169.30
2018-10-19T09:42:32.779Z,145169.30
2018-10-19T09:45:01.999Z,145342.13
2018-10-19T09:47:31.147Z,145325.83
2018-10-19T09:50:00.674Z,145461.06
2018-10-19T09:52:30.145Z,145512.50
2018-10-19T09:54:59.281Z,145582.67
2018-10-19T09:57:28.441Z,145548.83
2018-10-19T09:59:57.512Z,145543.81
2018-10-19T10:02:26.585Z,145646.56
2018-10-19T10:04:55.807Z,145332.09
2018-10-19T10:07:24.883Z,145307.05
2018-10-19T10:09:53.924Z,145394.67
2018-10-19T10:12:23.037Z,145421.00
2018-10-19T10:14:52.242Z,145545.08
2018-10-19T10:17:21.272Z,145449.81
2018-10-19T10:19:50.320Z,145499.95
2018-10-19T10:22:19.449Z,145563.88
2018-10-19T10:24:48.530Z,145617.72
2018-10-19T10:27:17.627Z,145716.78
2018-10-19T10:29:46.771Z,145795.81
2018-10-19T10:32:16.014Z,145891.19
2018-10-19T10:34:45.069Z,145731.84
2018-10-19T10:37:14.218Z,145528.77
2018-10-19T10:39:43.432Z,145662.88
2018-10-19T10:42:12.575Z,145718.06
2018-10-19T10:44:42.115Z,145563.88
2018-10-19T10:47:11.192Z,145667.94
2018-10-19T10:49:40.267Z,145449.81
2018-10-19T10:52:09.574Z,145636.52
2018-10-19T10:54:38.594Z,145787.05
2018-10-19T10:57:07.941Z,145896.20
2018-10-19T10:59:37.053Z,146064.34
2018-10-19T11:02:06.498Z,146166.05
2018-10-19T11:04:37.078Z,146115.81
2018-10-19T11:07:06.325Z,145884.89
2018-10-19T11:09:36.440Z,145922.53
2018-10-19T11:12:06.090Z,145877.39
2018-10-19T11:14:35.200Z,145819.64
2018-10-19T11:17:04.244Z,145543.81
2018-10-19T11:19:33.628Z,145352.09
2018-10-19T11:22:02.764Z,145567.63
2018-10-19T11:24:32.349Z,145410.97
2018-10-19T11:27:01.753Z,145219.34
2018-10-19T11:29:31.018Z,145327.09
2018-10-19T11:32:00.064Z,145333.31
2018-10-19T11:34:29.153Z,145387.19
2018-10-19T11:36:58.315Z,145497.47
2018-10-19T11:39:27.701Z,145497.47
2018-10-19T11:41:56.817Z,145244.39
2018-10-19T11:44:25.987Z,145314.53
2018-10-19T11:46:57.448Z,145299.56
2018-10-19T11:49:26.549Z,145428.50
2018-10-19T11:51:55.646Z,145404.70
2018-10-19T11:54:24.774Z,145429.77
2018-10-19T11:56:53.823Z,145484.91
2018-10-19T11:59:22.964Z,145497.47
2018-10-19T12:01:52.187Z,145527.50
2018-10-19T12:04:21.610Z,145610.22
2018-10-19T12:06:50.716Z,145362.13
2018-10-19T12:09:19.800Z,145319.55
2018-10-19T12:11:48.912Z,145377.16
2018-10-19T12:14:18.052Z,145448.55
2018-10-19T12:16:47.302Z,145640.31
2018-10-19T12:19:16.484Z,145540.06
2018-10-19T12:21:45.479Z,145412.25
2018-10-19T12:24:14.874Z,145570.09
2018-10-19T12:26:44.005Z,145582.67
2018-10-19T12:29:13.143Z,145487.44
2018-10-19T12:31:42.209Z,145543.81
2018-10-19T12:34:11.320Z,145486.17
2018-10-19T12:36:40.380Z,145553.84
2018-10-19T12:39:10.713Z,145521.28
2018-10-19T12:41:39.812Z,145317.06
2018-10-19T12:44:08.888Z,145472.41
2018-10-19T12:46:49.881Z,145625.28
2018-10-19T12:49:23.234Z,145709.30
2018-10-19T12:51:52.513Z,145645.28
2018-10-19T12:54:21.546Z,145571.38
2018-10-19T12:56:51.061Z,145528.77
2018-10-19T12:59:20.203Z,145547.56
2018-10-19T13:01:49.324Z,145592.69
2018-10-19T13:04:18.685Z,145697.98
2018-10-19T13:06:47.841Z,145729.36
2018-10-19T13:09:17.178Z,145632.78
2018-10-19T13:11:46.248Z,145459.84
2018-10-19T13:14:15.324Z,145448.55
2018-10-19T13:16:44.396Z,145543.81
2018-10-19T13:19:13.581Z,145503.70
2018-10-19T13:21:42.894Z,145499.95
2018-10-19T13:24:12.308Z,145588.91
2018-10-19T13:26:41.637Z,145441.05
2018-10-19T13:29:11.101Z,145641.53
2018-10-19T13:31:40.159Z,145587.69
2018-10-19T13:34:09.266Z,145630.30
2018-10-19T13:36:38.364Z,145705.53
2018-10-19T13:39:10.394Z,145730.58
2018-10-19T13:41:39.702Z,145616.50
2018-10-19T13:44:08.850Z,145684.20
2018-10-19T13:46:38.113Z,145726.83
2018-10-19T13:49:07.206Z,145612.72
2018-10-19T13:51:36.836Z,145601.47
2018-10-19T13:54:06.108Z,145591.44
2018-10-19T13:56:35.181Z,145654.09
2018-10-19T13:59:04.332Z,145613.97
2018-10-19T14:01:33.451Z,145451.08
2018-10-19T14:04:02.844Z,145431.03
2018-10-19T14:06:31.996Z,145444.80
2018-10-19T14:09:01.106Z,145482.42
2018-10-19T14:11:30.235Z,145423.48
2018-10-19T14:13:59.312Z,145434.78
2018-10-19T14:16:28.487Z,145419.73
2018-10-19T14:18:57.591Z,145432.25
2018-10-19T14:21:26.968Z,145340.86
2018-10-19T14:23:56.052Z,145339.59
2018-10-19T14:26:25.140Z,145266.97
2018-10-19T14:28:54.224Z,145256.94
2018-10-19T14:31:23.272Z,145292.02
2018-10-19T14:33:52.428Z,145259.42
2018-10-19T14:36:21.562Z,145280.72
2018-10-19T14:38:50.887Z,145219.34
2018-10-19T14:41:20.908Z,145131.77
2018-10-19T14:43:50.012Z,145198.09
2018-10-19T14:46:19.096Z,145258.16
2018-10-19T14:48:48.146Z,145219.34
2018-10-19T14:51:17.333Z,145174.31
2018-10-19T14:53:46.411Z,145166.83
2018-10-19T14:56:15.506Z,145166.83
2018-10-19T14:58:44.857Z,145115.47
2018-10-19T15:01:14.209Z,145081.73
2018-10-19T15:03:43.272Z,145085.48
2018-10-19T15:06:12.425Z,145084.22
2018-10-19T15:08:41.492Z,145057.97
2018-10-19T15:11:11.068Z,145066.72
2018-10-19T15:13:40.224Z,145021.61
2018-10-19T15:16:09.625Z,144930.34
2018-10-19T15:18:38.718Z,144884.05
2018-10-19T15:21:07.930Z,144881.56
2018-10-19T15:23:37.306Z,144920.34
2018-10-19T15:26:06.461Z,144852.81
2018-10-19T15:28:35.629Z,144836.53
2018-10-19T15:31:04.769Z,144847.81
2018-10-19T15:33:34.496Z,144834.06
2018-10-19T15:36:04.056Z,144819.00
2018-10-19T15:38:33.163Z,144806.52
2018-10-19T15:41:02.613Z,144860.28
2018-10-19T15:43:31.749Z,144865.30
2018-10-19T15:46:01.229Z,144822.75
2018-10-19T15:48:30.609Z,144757.75
2018-10-19T15:50:59.982Z,144726.53
2018-10-19T15:53:29.180Z,144679.05
2018-10-19T15:55:58.524Z,144676.53
2018-10-19T15:58:27.891Z,144644.05
2018-10-19T16:00:57.285Z,144600.31
2018-10-19T16:03:26.709Z,144612.84
2018-10-19T16:05:56.130Z,144611.58
2018-10-19T16:08:25.571Z,144624.05
2018-10-19T16:10:55.114Z,144695.27
2018-10-19T16:13:24.665Z,144691.53
2018-10-19T16:15:53.951Z,144639.05
2018-10-19T16:18:23.350Z,144689.06
2018-10-19T16:20:52.950Z,144612.84
2018-10-19T16:23:22.521Z,144576.53
2018-10-19T16:25:51.592Z,144544.06
2018-10-19T16:28:20.808Z,144529.13
2018-10-19T16:30:49.918Z,144529.13
2018-10-19T16:33:19.361Z,144526.59
2018-10-19T16:35:48.671Z,144604.11
2018-10-19T16:38:18.212Z,144594.09
2018-10-19T16:40:47.214Z,144562.80
2018-10-19T16:43:16.232Z,144557.80
2018-10-19T16:45:45.931Z,144621.58
2018-10-19T16:48:15.831Z,144584.06
2018-10-19T16:50:45.198Z,144551.59
2018-10-19T16:53:14.572Z,144535.34
2018-10-19T16:55:43.632Z,144502.88
2018-10-19T16:58:13.130Z,144489.14
2018-10-19T17:00:42.579Z,144464.16
2018-10-19T17:03:12.026Z,144447.95
2018-10-19T17:05:41.389Z,144445.44
2018-10-19T17:08:10.488Z,144424.23
2018-10-19T17:10:39.507Z,144399.25
2018-10-19T17:13:09.090Z,144393.00
2018-10-19T17:15:38.134Z,144383.05
2018-10-19T17:18:07.313Z,144374.28
2018-10-19T17:20:36.694Z,144383.05
2018-10-19T17:23:06.118Z,144417.97
2018-10-19T17:25:35.228Z,144437.95
2018-10-19T17:28:04.710Z,144434.22
2018-10-19T17:30:34.335Z,144409.25
2018-10-19T17:33:03.608Z,144396.78
2018-10-19T17:35:33.314Z,144384.27
2018-10-19T17:38:02.613Z,144359.34
2018-10-19T17:40:31.836Z,144345.56
2018-10-19T17:43:01.231Z,144343.09
2018-10-19T17:45:30.209Z,144329.31
2018-10-19T17:47:59.411Z,144316.86
2018-10-19T17:50:28.521Z,144323.06
2018-10-19T17:52:57.870Z,144315.59
2018-10-19T17:55:26.924Z,144338.05
2018-10-19T17:57:56.001Z,144323.06
2018-10-19T18:00:25.433Z,144321.80
2018-10-19T18:02:54.996Z,144325.59
2018-10-19T18:05:24.576Z,144325.59
2018-10-19T18:07:53.832Z,144316.86
2018-10-19T18:10:23.129Z,144310.59
2018-10-19T18:12:52.754Z,144306.87
2018-10-19T18:15:22.935Z,144321.80
2018-10-19T18:17:52.417Z,144351.81
2018-10-19T18:20:21.527Z,144344.34
2018-10-19T18:22:50.748Z,144349.34
2018-10-19T18:25:19.642Z,144350.56
2018-10-19T18:27:48.960Z,144336.78
2018-10-19T18:30:18.307Z,144361.81
2018-10-19T18:32:47.599Z,144388.00
2018-10-19T18:35:17.044Z,144376.80
2018-10-19T18:37:46.239Z,144375.53
2018-10-19T18:40:15.638Z,144389.27
2018-10-19T18:42:44.980Z,144363.06
2018-10-19T18:45:14.456Z,144340.56
2018-10-19T18:47:43.525Z,144329.31
2018-10-19T18:50:12.741Z,144324.33
2018-10-19T18:52:42.013Z,144331.80
2018-10-19T18:55:11.199Z,144340.56
2018-10-19T18:57:40.470Z,144330.58
2018-10-19T19:00:11.096Z,144331.80
2018-10-19T19:02:40.725Z,144328.06
2018-10-19T19:05:10.328Z,144334.31
2018-10-19T19:07:39.693Z,144340.56
2018-10-19T19:10:12.785Z,144358.08
2018-10-19T19:12:42.147Z,144374.28
2018-10-19T19:15:11.901Z,144378.06
2018-10-19T19:17:41.537Z,144396.78
2018-10-19T19:20:15.697Z,144393.00
2018-10-19T19:22:44.902Z,144406.72
2018-10-19T19:25:19.314Z,144409.25
2018-10-19T19:27:48.894Z,144399.25
2018-10-19T19:30:18.233Z,144401.78
2018-10-19T19:32:52.788Z,144399.25
2018-10-19T19:35:22.136Z,144394.25
2018-10-19T19:37:51.595Z,144380.53
2018-10-19T19:40:21.114Z,144373.06
2018-10-19T19:42:52.470Z,144358.08
2018-10-19T19:45:21.896Z,144365.55
2018-10-19T19:47:56.401Z,144360.55
2018-10-19T19:50:25.902Z,144343.09
2018-10-19T19:52:55.431Z,144339.31
2018-10-19T19:55:24.717Z,144321.80
2018-10-19T19:57:54.262Z,144298.14
2018-10-19T20:00:23.715Z,144286.89
2018-10-19T20:02:53.017Z,144274.44
2018-10-19T20:05:22.551Z,144266.91
2018-10-19T20:07:52.102Z,144251.94
2018-10-19T20:10:21.445Z,144230.75
2018-10-19T20:12:50.713Z,144232.02
2018-10-19T20:15:20.252Z,144227.02
2018-10-19T20:17:49.580Z,144199.53
2018-10-19T20:20:19.043Z,144205.80
2018-10-19T20:22:48.514Z,144210.78
2018-10-19T20:25:18.182Z,144223.25
2018-10-19T20:27:47.661Z,144218.25
2018-10-19T20:30:17.105Z,144182.09
2018-10-19T20:32:46.738Z,144179.63
2018-10-19T20:35:16.152Z,144172.11
2018-10-19T20:37:45.550Z,144158.39
2018-10-19T20:40:15.023Z,144147.19
2018-10-19T20:42:44.500Z,144143.41
2018-10-19T20:45:13.918Z,144144.67
2018-10-19T20:47:43.371Z,144147.19
2018-10-19T20:50:12.776Z,144119.72
2018-10-19T20:52:42.120Z,144127.23
2018-10-19T20:55:11.460Z,144118.50
2018-10-19T20:57:40.928Z,144118.50
2018-10-19T21:00:10.481Z,144086.09
2018-10-19T21:02:39.865Z,144071.08
2018-10-19T21:05:11.212Z,144051.11
2018-10-19T21:07:40.678Z,144062.34
2018-10-19T21:10:11.909Z,144048.59
2018-10-19T21:12:41.363Z,144034.87
2018-10-19T21:15:12.993Z,144016.19
2018-10-19T21:17:42.634Z,144005.00
2018-10-19T21:20:13.668Z,143992.50
2018-10-19T21:22:43.063Z,143987.52
2018-10-19T21:25:12.997Z,144019.97
2018-10-19T21:27:42.408Z,143992.50
2018-10-19T21:30:12.760Z,143982.53
2018-10-19T21:32:42.576Z,143975.06
2018-10-19T21:35:12.683Z,144037.41
2018-10-19T21:37:42.134Z,143996.28
2018-10-19T21:40:12.076Z,143976.33
2018-10-19T21:42:41.503Z,143966.34
2018-10-19T21:45:11.125Z,143967.59
2018-10-19T21:47:40.998Z,143965.09
2018-10-19T21:50:10.832Z,143955.11
2018-10-19T21:52:40.450Z,143940.14
2018-10-19T21:55:11.162Z,143942.66
2018-10-19T21:57:40.949Z,143937.67
2018-10-19T22:00:10.956Z,143915.25
2018-10-19T22:02:40.491Z,143905.28
2018-10-19T22:05:10.297Z,143900.30
2018-10-19T22:07:39.713Z,143886.59
2018-10-19T22:10:09.287Z,143871.63
2018-10-19T22:12:38.666Z,143865.39
2018-10-19T22:15:08.749Z,143859.19
2018-10-19T22:17:38.217Z,143839.25
2018-10-19T22:20:08.032Z,143852.94
2018-10-19T22:22:37.805Z,143846.69
2018-10-19T22:25:07.583Z,143840.50
2018-10-19T22:27:37.013Z,143839.25
2018-10-19T22:30:07.417Z,143819.30
2018-10-19T22:32:36.839Z,143829.27
2018-10-19T22:35:06.329Z,143811.84
2018-10-19T22:37:35.963Z,143794.31
2018-10-19T22:40:05.848Z,143775.64
2018-10-19T22:42:35.319Z,143773.17
2018-10-19T22:45:04.938Z,143794.31
2018-10-19T22:47:34.440Z,143798.14
2018-10-19T22:50:03.858Z,143783.14
2018-10-19T22:52:33.165Z,143780.63
2018-10-19T22:55:02.645Z,143758.22
2018-10-19T22:57:32.035Z,143758.22
2018-10-19T23:00:01.563Z,143748.25
2018-10-19T23:02:31.383Z,143755.75
2018-10-19T23:05:00.832Z,143771.91
2018-10-19T23:07:30.311Z,143770.66
2018-10-19T23:09:59.980Z,143761.94
2018-10-19T23:12:29.404Z,143764.45
2018-10-19T23:14:58.803Z,143758.22
2018-10-19T23:17:28.489Z,143765.72
2018-10-19T23:19:57.916Z,143745.78
2018-10-19T23:22:27.243Z,143728.31
2018-10-19T23:24:56.704Z,143754.48
2018-10-19T23:27:26.077Z,143768.19
2018-10-19T23:29:55.591Z,143785.61
2018-10-19T23:32:25.072Z,143780.63
2018-10-19T23:34:54.713Z,143815.56
2018-10-19T23:37:24.130Z,143815.56
2018-10-19T23:39:53.588Z,143836.72
2018-10-19T23:42:23.293Z,143816.83
2018-10-19T23:44:52.725Z,143841.72
2018-10-19T23:47:22.493Z,143836.72
2018-10-19T23:49:52.457Z,143836.72
2018-10-19T23:52:22.050Z,143859.19
2018-10-19T23:54:51.523Z,143846.69
2018-10-19T23:57:20.996Z,143842.97
2018-10-19T23:59:50.880Z,143846.69
